sensor_id;sensor_type;location;lat;lon;timestamp;temperature;humidity
10848;DHT22;5477;48.806;9.154;2023-05-19T00:00:17;12.80;99.90
10848;DHT22;5477;48.806;9.154;2023-05-19T00:02:46;12.80;99.90
10848;DHT22;5477;48.806;9.154;2023-05-19T00:05:14;12.80;99.90
10848;DHT22;5477;48.806;9.154;2023-05-19T00:07:46;12.80;99.90
10848;DHT22;5477;48.806;9.154;2023-05-19T00:10:16;12.80;99.90
10848;DHT22;5477;48.806;9.154;2023-05-19T00:12:45;12.70;99.90
10848;DHT22;5477;48.806;9.154;2023-05-19T00:15:14;12.70;99.90
10848;DHT22;5477;48.806;9.154;2023-05-19T00:17:42;12.70;99.90
10848;DHT22;5477;48.806;9.154;2023-05-19T00:20:11;12.60;99.90
10848;DHT22;5477;48.806;9.154;2023-05-19T00:22:39;12.60;99.90
10848;DHT22;5477;48.806;9.154;2023-05-19T00:25:11;12.60;99.90
10848;DHT22;5477;48.806;9.154;2023-05-19T00:27:39;12.50;99.90
10848;DHT22;5477;48.806;9.154;2023-05-19T00:30:07;12.50;99.90
10848;DHT22;5477;48.806;9.154;2023-05-19T00:32:35;12.40;99.90
10848;DHT22;5477;48.806;9.154;2023-05-19T00:35:04;12.40;99.90
10848;DHT22;5477;48.806;9.154;2023-05-19T00:37:32;12.30;99.90
10848;DHT22;5477;48.806;9.154;2023-05-19T00:40:00;12.40;99.90
10848;DHT22;5477;48.806;9.154;2023-05-19T00:42:31;12.40;99.90
10848;DHT22;5477;48.806;9.154;2023-05-19T00:44:59;12.40;99.90
10848;DHT22;5477;48.806;9.154;2023-05-19T00:47:27;12.40;99.90
10848;DHT22;5477;48.806;9.154;2023-05-19T00:49:55;12.40;99.90
10848;DHT22;5477;48.806;9.154;2023-05-19T00:52:24;12.40;99.90
10848;DHT22;5477;48.806;9.154;2023-05-19T00:54:52;12.40;99.90
10848;DHT22;5477;48.806;9.154;2023-05-19T00:57:22;12.40;99.90
10848;DHT22;5477;48.806;9.154;2023-05-19T00:59:53;12.40;99.90
10848;DHT22;5477;48.806;9.154;2023-05-19T01:02:22;12.30;99.90
10848;DHT22;5477;48.806;9.154;2023-05-19T01:04:50;12.30;99.90
10848;DHT22;5477;48.806;9.154;2023-05-19T01:07:19;12.30;99.90
10848;DHT22;5477;48.806;9.154;2023-05-19T01:09:48;12.30;99.90
10848;DHT22;5477;48.806;9.154;2023-05-19T01:12:16;12.30;99.90
10848;DHT22;5477;48.806;9.154;2023-05-19T01:14:44;12.20;99.90
10848;DHT22;5477;48.806;9.154;2023-05-19T01:17:20;12.20;99.90
10848;DHT22;5477;48.806;9.154;2023-05-19T01:19:56;12.20;99.90
10848;DHT22;5477;48.806;9.154;2023-05-19T01:22:43;12.20;99.90
10848;DHT22;5477;48.806;9.154;2023-05-19T01:25:45;12.10;99.90
10848;DHT22;5477;48.806;9.154;2023-05-19T01:28:37;12.10;99.90
10848;DHT22;5477;48.806;9.154;2023-05-19T01:31:14;12.10;99.90
10848;DHT22;5477;48.806;9.154;2023-05-19T01:33:44;12.10;99.90
10848;DHT22;5477;48.806;9.154;2023-05-19T01:36:14;12.10;99.90
10848;DHT22;5477;48.806;9.154;2023-05-19T01:38:43;12.10;99.90
10848;DHT22;5477;48.806;9.154;2023-05-19T01:41:13;12.00;99.90
10848;DHT22;5477;48.806;9.154;2023-05-19T01:43:42;12.10;99.90
10848;DHT22;5477;48.806;9.154;2023-05-19T01:46:12;12.00;99.90
10848;DHT22;5477;48.806;9.154;2023-05-19T01:48:42;12.10;99.90
10848;DHT22;5477;48.806;9.154;2023-05-19T01:51:10;12.00;99.90
10848;DHT22;5477;48.806;9.154;2023-05-19T01:53:38;12.00;99.90
10848;DHT22;5477;48.806;9.154;2023-05-19T01:56:07;12.00;99.90
10848;DHT22;5477;48.806;9.154;2023-05-19T01:58:43;12.10;99.90
10848;DHT22;5477;48.806;9.154;2023-05-19T02:01:20;12.10;99.90
10848;DHT22;5477;48.806;9.154;2023-05-19T02:04:03;12.00;99.90
10848;DHT22;5477;48.806;9.154;2023-05-19T02:06:41;12.00;99.90
10848;DHT22;5477;48.806;9.154;2023-05-19T02:09:17;12.00;99.90
10848;DHT22;5477;48.806;9.154;2023-05-19T02:11:51;12.10;99.90
10848;DHT22;5477;48.806;9.154;2023-05-19T02:14:24;12.00;99.90
10848;DHT22;5477;48.806;9.154;2023-05-19T02:16:59;12.00;99.90
10848;DHT22;5477;48.806;9.154;2023-05-19T02:19:34;12.00;99.90
10848;DHT22;5477;48.806;9.154;2023-05-19T02:22:02;12.00;99.90
10848;DHT22;5477;48.806;9.154;2023-05-19T02:24:30;11.90;99.90
10848;DHT22;5477;48.806;9.154;2023-05-19T02:26:58;11.90;99.90
10848;DHT22;5477;48.806;9.154;2023-05-19T02:29:26;11.90;99.90
10848;DHT22;5477;48.806;9.154;2023-05-19T02:31:54;11.90;99.90
10848;DHT22;5477;48.806;9.154;2023-05-19T02:34:23;11.90;99.90
10848;DHT22;5477;48.806;9.154;2023-05-19T02:36:52;12.00;99.90
10848;DHT22;5477;48.806;9.154;2023-05-19T02:39:21;11.90;99.90
10848;DHT22;5477;48.806;9.154;2023-05-19T02:41:49;12.00;99.90
10848;DHT22;5477;48.806;9.154;2023-05-19T02:44:17;12.00;99.90
10848;DHT22;5477;48.806;9.154;2023-05-19T02:46:45;11.90;99.90
10848;DHT22;5477;48.806;9.154;2023-05-19T02:49:13;11.90;99.90
10848;DHT22;5477;48.806;9.154;2023-05-19T02:51:43;11.90;99.90
10848;DHT22;5477;48.806;9.154;2023-05-19T02:54:11;11.90;99.90
10848;DHT22;5477;48.806;9.154;2023-05-19T02:56:39;11.90;99.90
10848;DHT22;5477;48.806;9.154;2023-05-19T02:59:07;11.90;99.90
10848;DHT22;5477;48.806;9.154;2023-05-19T03:01:35;11.80;99.90
10848;DHT22;5477;48.806;9.154;2023-05-19T03:04:03;11.80;99.90
10848;DHT22;5477;48.806;9.154;2023-05-19T03:06:32;11.80;99.90
10848;DHT22;5477;48.806;9.154;2023-05-19T03:09:01;11.80;99.90
10848;DHT22;5477;48.806;9.154;2023-05-19T03:11:29;11.80;99.90
10848;DHT22;5477;48.806;9.154;2023-05-19T03:13:57;11.70;99.90
10848;DHT22;5477;48.806;9.154;2023-05-19T03:16:25;11.70;99.90
10848;DHT22;5477;48.806;9.154;2023-05-19T03:18:54;11.70;99.90
10848;DHT22;5477;48.806;9.154;2023-05-19T03:21:22;11.70;99.90
10848;DHT22;5477;48.806;9.154;2023-05-19T03:23:50;11.70;99.90
10848;DHT22;5477;48.806;9.154;2023-05-19T03:26:20;11.70;99.90
10848;DHT22;5477;48.806;9.154;2023-05-19T03:28:48;11.70;99.90
10848;DHT22;5477;48.806;9.154;2023-05-19T03:31:16;11.60;99.90
10848;DHT22;5477;48.806;9.154;2023-05-19T03:33:45;11.60;99.90
10848;DHT22;5477;48.806;9.154;2023-05-19T03:36:13;11.50;99.90
10848;DHT22;5477;48.806;9.154;2023-05-19T03:38:41;11.50;99.90
10848;DHT22;5477;48.806;9.154;2023-05-19T03:41:09;11.50;99.90
10848;DHT22;5477;48.806;9.154;2023-05-19T03:43:38;11.50;99.90
10848;DHT22;5477;48.806;9.154;2023-05-19T03:46:08;11.40;99.90
10848;DHT22;5477;48.806;9.154;2023-05-19T03:48:57;11.30;99.90
10848;DHT22;5477;48.806;9.154;2023-05-19T03:51:51;11.20;99.90
10848;DHT22;5477;48.806;9.154;2023-05-19T03:54:38;11.10;99.90
10848;DHT22;5477;48.806;9.154;2023-05-19T03:57:08;10.90;99.90
10848;DHT22;5477;48.806;9.154;2023-05-19T03:59:38;10.90;99.90
10848;DHT22;5477;48.806;9.154;2023-05-19T04:02:07;10.80;99.90
10848;DHT22;5477;48.806;9.154;2023-05-19T04:04:35;10.80;99.90
10848;DHT22;5477;48.806;9.154;2023-05-19T04:07:04;10.80;99.90
10848;DHT22;5477;48.806;9.154;2023-05-19T04:09:32;10.80;99.90
10848;DHT22;5477;48.806;9.154;2023-05-19T04:12:01;10.70;99.90
10848;DHT22;5477;48.806;9.154;2023-05-19T04:14:29;10.70;99.90
10848;DHT22;5477;48.806;9.154;2023-05-19T04:16:58;10.70;99.90
10848;DHT22;5477;48.806;9.154;2023-05-19T04:19:26;10.70;99.90
10848;DHT22;5477;48.806;9.154;2023-05-19T04:21:54;10.70;99.90
10848;DHT22;5477;48.806;9.154;2023-05-19T04:24:22;10.70;99.90
10848;DHT22;5477;48.806;9.154;2023-05-19T04:26:51;10.70;99.90
10848;DHT22;5477;48.806;9.154;2023-05-19T04:29:19;10.60;99.90
10848;DHT22;5477;48.806;9.154;2023-05-19T04:31:49;10.50;99.90
10848;DHT22;5477;48.806;9.154;2023-05-19T04:34:20;10.60;99.90
10848;DHT22;5477;48.806;9.154;2023-05-19T04:36:48;10.60;99.90
10848;DHT22;5477;48.806;9.154;2023-05-19T04:39:21;10.80;99.90
10848;DHT22;5477;48.806;9.154;2023-05-19T04:41:50;10.80;99.90
10848;DHT22;5477;48.806;9.154;2023-05-19T04:44:19;10.80;99.90
10848;DHT22;5477;48.806;9.154;2023-05-19T04:46:49;10.90;99.90
10848;DHT22;5477;48.806;9.154;2023-05-19T04:49:22;10.90;99.90
10848;DHT22;5477;48.806;9.154;2023-05-19T04:51:51;11.00;99.90
10848;DHT22;5477;48.806;9.154;2023-05-19T04:54:25;11.00;99.90
10848;DHT22;5477;48.806;9.154;2023-05-19T04:56:54;11.00;99.90
10848;DHT22;5477;48.806;9.154;2023-05-19T04:59:25;11.10;99.90
10848;DHT22;5477;48.806;9.154;2023-05-19T05:01:53;11.10;99.90
10848;DHT22;5477;48.806;9.154;2023-05-19T05:04:24;11.10;99.90
10848;DHT22;5477;48.806;9.154;2023-05-19T05:06:52;11.10;99.90
10848;DHT22;5477;48.806;9.154;2023-05-19T05:09:22;11.30;99.90
10848;DHT22;5477;48.806;9.154;2023-05-19T05:11:50;11.30;99.90
10848;DHT22;5477;48.806;9.154;2023-05-19T05:14:18;11.40;99.90
10848;DHT22;5477;48.806;9.154;2023-05-19T05:16:48;11.50;99.90
10848;DHT22;5477;48.806;9.154;2023-05-19T05:19:21;11.50;99.90
10848;DHT22;5477;48.806;9.154;2023-05-19T05:21:52;11.60;99.90
10848;DHT22;5477;48.806;9.154;2023-05-19T05:24:20;11.70;99.90
10848;DHT22;5477;48.806;9.154;2023-05-19T05:26:53;11.70;99.90
10848;DHT22;5477;48.806;9.154;2023-05-19T05:29:21;11.80;99.90
10848;DHT22;5477;48.806;9.154;2023-05-19T05:31:49;11.80;99.90
10848;DHT22;5477;48.806;9.154;2023-05-19T05:34:17;11.90;99.90
10848;DHT22;5477;48.806;9.154;2023-05-19T05:36:45;12.00;99.90
10848;DHT22;5477;48.806;9.154;2023-05-19T05:39:15;12.00;99.90
10848;DHT22;5477;48.806;9.154;2023-05-19T05:41:45;12.10;99.90
10848;DHT22;5477;48.806;9.154;2023-05-19T05:44:13;12.20;99.90
10848;DHT22;5477;48.806;9.154;2023-05-19T05:46:43;12.20;99.90
10848;DHT22;5477;48.806;9.154;2023-05-19T05:49:12;12.20;99.90
10848;DHT22;5477;48.806;9.154;2023-05-19T05:51:44;12.10;99.90
10848;DHT22;5477;48.806;9.154;2023-05-19T05:54:34;12.20;99.90
10848;DHT22;5477;48.806;9.154;2023-05-19T05:57:03;12.20;99.90
10848;DHT22;5477;48.806;9.154;2023-05-19T05:59:31;12.20;99.90
10848;DHT22;5477;48.806;9.154;2023-05-19T06:02:00;12.30;99.90
10848;DHT22;5477;48.806;9.154;2023-05-19T06:04:29;12.30;99.90
10848;DHT22;5477;48.806;9.154;2023-05-19T06:06:57;12.30;99.90
10848;DHT22;5477;48.806;9.154;2023-05-19T06:09:31;12.30;99.90
10848;DHT22;5477;48.806;9.154;2023-05-19T06:12:02;12.30;99.90
10848;DHT22;5477;48.806;9.154;2023-05-19T06:14:37;12.40;99.90
10848;DHT22;5477;48.806;9.154;2023-05-19T06:17:16;12.50;99.90
10848;DHT22;5477;48.806;9.154;2023-05-19T06:19:44;12.60;99.90
10848;DHT22;5477;48.806;9.154;2023-05-19T06:22:12;12.70;99.90
10848;DHT22;5477;48.806;9.154;2023-05-19T06:24:40;12.90;99.90
10848;DHT22;5477;48.806;9.154;2023-05-19T06:27:10;12.90;99.90
10848;DHT22;5477;48.806;9.154;2023-05-19T06:29:38;13.00;99.90
10848;DHT22;5477;48.806;9.154;2023-05-19T06:32:07;13.10;99.90
10848;DHT22;5477;48.806;9.154;2023-05-19T06:34:37;13.20;99.90
10848;DHT22;5477;48.806;9.154;2023-05-19T06:37:06;13.30;99.90
10848;DHT22;5477;48.806;9.154;2023-05-19T06:39:34;13.30;99.90
10848;DHT22;5477;48.806;9.154;2023-05-19T06:42:03;13.30;99.90
10848;DHT22;5477;48.806;9.154;2023-05-19T06:44:51;13.20;99.90
10848;DHT22;5477;48.806;9.154;2023-05-19T06:47:19;13.20;99.90
10848;DHT22;5477;48.806;9.154;2023-05-19T06:49:47;13.30;99.90
10848;DHT22;5477;48.806;9.154;2023-05-19T06:52:23;13.30;99.90
10848;DHT22;5477;48.806;9.154;2023-05-19T06:54:52;13.30;99.90
10848;DHT22;5477;48.806;9.154;2023-05-19T06:57:20;13.40;99.90
10848;DHT22;5477;48.806;9.154;2023-05-19T06:59:48;13.40;99.90
10848;DHT22;5477;48.806;9.154;2023-05-19T07:02:18;13.40;99.90
10848;DHT22;5477;48.806;9.154;2023-05-19T07:04:47;13.50;99.90
10848;DHT22;5477;48.806;9.154;2023-05-19T07:07:16;13.50;99.90
10848;DHT22;5477;48.806;9.154;2023-05-19T07:09:45;13.50;99.90
10848;DHT22;5477;48.806;9.154;2023-05-19T07:12:13;13.60;99.90
10848;DHT22;5477;48.806;9.154;2023-05-19T07:14:41;13.70;99.90
10848;DHT22;5477;48.806;9.154;2023-05-19T07:17:10;13.80;99.90
10848;DHT22;5477;48.806;9.154;2023-05-19T07:19:43;13.90;99.90
10848;DHT22;5477;48.806;9.154;2023-05-19T07:22:13;14.00;99.90
10848;DHT22;5477;48.806;9.154;2023-05-19T07:24:43;14.10;99.90
10848;DHT22;5477;48.806;9.154;2023-05-19T07:27:10;14.10;99.90
10848;DHT22;5477;48.806;9.154;2023-05-19T07:29:38;14.20;99.90
10848;DHT22;5477;48.806;9.154;2023-05-19T07:32:06;14.30;99.90
10848;DHT22;5477;48.806;9.154;2023-05-19T07:34:34;14.20;99.90
10848;DHT22;5477;48.806;9.154;2023-05-19T07:37:04;14.10;99.90
10848;DHT22;5477;48.806;9.154;2023-05-19T07:39:33;14.10;99.90
10848;DHT22;5477;48.806;9.154;2023-05-19T07:42:01;14.10;99.90
10848;DHT22;5477;48.806;9.154;2023-05-19T07:44:30;14.20;99.90
10848;DHT22;5477;48.806;9.154;2023-05-19T07:46:58;14.20;99.90
10848;DHT22;5477;48.806;9.154;2023-05-19T07:49:26;14.20;99.90
10848;DHT22;5477;48.806;9.154;2023-05-19T07:51:54;14.30;99.90
10848;DHT22;5477;48.806;9.154;2023-05-19T07:54:23;14.40;99.90
10848;DHT22;5477;48.806;9.154;2023-05-19T07:56:51;14.40;99.90
10848;DHT22;5477;48.806;9.154;2023-05-19T07:59:19;14.40;99.90
10848;DHT22;5477;48.806;9.154;2023-05-19T08:01:48;14.50;99.90
10848;DHT22;5477;48.806;9.154;2023-05-19T08:04:16;14.60;99.90
10848;DHT22;5477;48.806;9.154;2023-05-19T08:06:44;14.70;99.90
10848;DHT22;5477;48.806;9.154;2023-05-19T08:09:12;14.60;99.90
10848;DHT22;5477;48.806;9.154;2023-05-19T08:11:41;14.50;99.90
10848;DHT22;5477;48.806;9.154;2023-05-19T08:14:10;14.50;99.90
10848;DHT22;5477;48.806;9.154;2023-05-19T08:16:38;14.40;99.90
10848;DHT22;5477;48.806;9.154;2023-05-19T08:19:08;14.40;99.90
10848;DHT22;5477;48.806;9.154;2023-05-19T08:21:36;14.50;99.90
10848;DHT22;5477;48.806;9.154;2023-05-19T08:24:04;14.40;99.90
10848;DHT22;5477;48.806;9.154;2023-05-19T08:26:32;14.40;99.90
10848;DHT22;5477;48.806;9.154;2023-05-19T08:29:04;14.30;99.90
10848;DHT22;5477;48.806;9.154;2023-05-19T08:31:32;14.30;99.90
10848;DHT22;5477;48.806;9.154;2023-05-19T08:34:00;14.40;99.90
10848;DHT22;5477;48.806;9.154;2023-05-19T08:36:29;14.40;99.90
10848;DHT22;5477;48.806;9.154;2023-05-19T08:38:57;14.40;99.90
10848;DHT22;5477;48.806;9.154;2023-05-19T08:41:25;14.40;99.90
10848;DHT22;5477;48.806;9.154;2023-05-19T08:43:53;14.30;99.90
10848;DHT22;5477;48.806;9.154;2023-05-19T08:46:24;14.30;99.90
10848;DHT22;5477;48.806;9.154;2023-05-19T08:48:56;14.30;99.90
10848;DHT22;5477;48.806;9.154;2023-05-19T08:51:32;14.40;99.90
10848;DHT22;5477;48.806;9.154;2023-05-19T08:54:10;14.40;99.90
10848;DHT22;5477;48.806;9.154;2023-05-19T08:56:41;14.50;99.90
10848;DHT22;5477;48.806;9.154;2023-05-19T08:59:11;14.40;99.90
10848;DHT22;5477;48.806;9.154;2023-05-19T09:01:41;14.40;99.90
10848;DHT22;5477;48.806;9.154;2023-05-19T09:04:11;14.40;99.90
10848;DHT22;5477;48.806;9.154;2023-05-19T09:06:40;14.50;99.90
10848;DHT22;5477;48.806;9.154;2023-05-19T09:09:10;14.40;99.90
10848;DHT22;5477;48.806;9.154;2023-05-19T09:11:38;14.50;99.90
10848;DHT22;5477;48.806;9.154;2023-05-19T09:14:07;14.60;99.90
10848;DHT22;5477;48.806;9.154;2023-05-19T09:16:35;14.70;99.90
10848;DHT22;5477;48.806;9.154;2023-05-19T09:19:04;14.70;99.90
10848;DHT22;5477;48.806;9.154;2023-05-19T09:21:34;14.80;99.90
10848;DHT22;5477;48.806;9.154;2023-05-19T09:24:03;14.80;99.90
10848;DHT22;5477;48.806;9.154;2023-05-19T09:26:36;14.90;99.90
10848;DHT22;5477;48.806;9.154;2023-05-19T09:29:15;14.90;99.90
10848;DHT22;5477;48.806;9.154;2023-05-19T09:31:47;15.10;99.90
10848;DHT22;5477;48.806;9.154;2023-05-19T09:34:18;15.10;99.90
10848;DHT22;5477;48.806;9.154;2023-05-19T09:36:47;15.00;99.90
10848;DHT22;5477;48.806;9.154;2023-05-19T09:39:16;14.90;99.90
10848;DHT22;5477;48.806;9.154;2023-05-19T09:41:45;14.90;99.90
10848;DHT22;5477;48.806;9.154;2023-05-19T09:44:20;15.10;99.90
10848;DHT22;5477;48.806;9.154;2023-05-19T09:46:49;15.10;99.90
10848;DHT22;5477;48.806;9.154;2023-05-19T09:49:23;15.10;99.90
10848;DHT22;5477;48.806;9.154;2023-05-19T09:51:53;15.10;99.90
10848;DHT22;5477;48.806;9.154;2023-05-19T09:54:22;15.20;99.90
10848;DHT22;5477;48.806;9.154;2023-05-19T09:56:55;15.30;99.90
10848;DHT22;5477;48.806;9.154;2023-05-19T09:59:24;15.40;99.90
10848;DHT22;5477;48.806;9.154;2023-05-19T10:01:58;15.60;99.90
10848;DHT22;5477;48.806;9.154;2023-05-19T10:04:28;15.50;99.90
10848;DHT22;5477;48.806;9.154;2023-05-19T10:06:57;15.50;99.90
10848;DHT22;5477;48.806;9.154;2023-05-19T10:09:27;15.50;99.90
10848;DHT22;5477;48.806;9.154;2023-05-19T10:11:57;15.60;99.90
10848;DHT22;5477;48.806;9.154;2023-05-19T10:14:26;15.50;99.90
10848;DHT22;5477;48.806;9.154;2023-05-19T10:16:56;15.40;99.90
10848;DHT22;5477;48.806;9.154;2023-05-19T10:19:25;15.40;99.90
10848;DHT22;5477;48.806;9.154;2023-05-19T10:21:55;15.30;99.90
10848;DHT22;5477;48.806;9.154;2023-05-19T10:24:23;15.40;99.90
10848;DHT22;5477;48.806;9.154;2023-05-19T10:26:54;15.50;99.90
10848;DHT22;5477;48.806;9.154;2023-05-19T10:29:26;15.60;99.90
10848;DHT22;5477;48.806;9.154;2023-05-19T10:31:58;15.50;99.90
10848;DHT22;5477;48.806;9.154;2023-05-19T10:34:52;15.40;99.90
10848;DHT22;5477;48.806;9.154;2023-05-19T10:37:33;15.50;99.90
10848;DHT22;5477;48.806;9.154;2023-05-19T10:40:06;15.50;99.90
10848;DHT22;5477;48.806;9.154;2023-05-19T10:42:42;15.50;99.90
10848;DHT22;5477;48.806;9.154;2023-05-19T10:45:14;15.30;99.90
10848;DHT22;5477;48.806;9.154;2023-05-19T10:47:44;15.40;99.90
10848;DHT22;5477;48.806;9.154;2023-05-19T10:50:13;15.50;99.90
10848;DHT22;5477;48.806;9.154;2023-05-19T10:52:43;15.50;99.90
10848;DHT22;5477;48.806;9.154;2023-05-19T10:55:12;15.40;99.90
10848;DHT22;5477;48.806;9.154;2023-05-19T10:57:52;15.30;99.90
10848;DHT22;5477;48.806;9.154;2023-05-19T11:00:26;15.30;99.90
10848;DHT22;5477;48.806;9.154;2023-05-19T11:03:11;15.20;99.90
10848;DHT22;5477;48.806;9.154;2023-05-19T11:05:40;15.10;99.90
10848;DHT22;5477;48.806;9.154;2023-05-19T11:08:12;15.00;99.90
10848;DHT22;5477;48.806;9.154;2023-05-19T11:10:43;15.00;99.90
10848;DHT22;5477;48.806;9.154;2023-05-19T11:13:18;15.10;99.90
10848;DHT22;5477;48.806;9.154;2023-05-19T11:15:48;15.10;99.90
10848;DHT22;5477;48.806;9.154;2023-05-19T11:18:18;15.20;99.90
10848;DHT22;5477;48.806;9.154;2023-05-19T11:20:54;15.10;99.90
10848;DHT22;5477;48.806;9.154;2023-05-19T11:23:25;15.10;99.90
10848;DHT22;5477;48.806;9.154;2023-05-19T11:25:53;15.10;99.90
10848;DHT22;5477;48.806;9.154;2023-05-19T11:28:22;15.20;99.90
10848;DHT22;5477;48.806;9.154;2023-05-19T11:30:53;15.20;99.90
10848;DHT22;5477;48.806;9.154;2023-05-19T11:33:24;15.20;99.90
10848;DHT22;5477;48.806;9.154;2023-05-19T11:35:54;15.20;99.90
10848;DHT22;5477;48.806;9.154;2023-05-19T11:38:27;15.20;99.90
10848;DHT22;5477;48.806;9.154;2023-05-19T11:40:56;15.30;99.90
10848;DHT22;5477;48.806;9.154;2023-05-19T11:43:24;15.30;99.90
10848;DHT22;5477;48.806;9.154;2023-05-19T11:45:53;15.30;99.90
10848;DHT22;5477;48.806;9.154;2023-05-19T11:48:21;15.40;99.90
10848;DHT22;5477;48.806;9.154;2023-05-19T11:50:50;15.40;99.90
10848;DHT22;5477;48.806;9.154;2023-05-19T11:53:18;15.50;99.90
10848;DHT22;5477;48.806;9.154;2023-05-19T11:55:48;15.50;99.90
10848;DHT22;5477;48.806;9.154;2023-05-19T11:58:16;15.60;99.90
10848;DHT22;5477;48.806;9.154;2023-05-19T12:00:44;15.50;99.90
10848;DHT22;5477;48.806;9.154;2023-05-19T12:03:13;15.50;99.90
10848;DHT22;5477;48.806;9.154;2023-05-19T12:05:44;15.40;99.90
10848;DHT22;5477;48.806;9.154;2023-05-19T12:08:15;15.40;99.90
10848;DHT22;5477;48.806;9.154;2023-05-19T12:10:48;15.40;99.90
10848;DHT22;5477;48.806;9.154;2023-05-19T12:13:16;15.50;99.90
10848;DHT22;5477;48.806;9.154;2023-05-19T12:15:44;15.40;99.90
10848;DHT22;5477;48.806;9.154;2023-05-19T12:18:13;15.60;99.90
10848;DHT22;5477;48.806;9.154;2023-05-19T12:20:41;15.50;99.90
10848;DHT22;5477;48.806;9.154;2023-05-19T12:23:10;15.50;99.90
10848;DHT22;5477;48.806;9.154;2023-05-19T12:25:38;15.50;99.90
10848;DHT22;5477;48.806;9.154;2023-05-19T12:28:08;15.60;99.90
10848;DHT22;5477;48.806;9.154;2023-05-19T12:30:37;15.70;99.90
10848;DHT22;5477;48.806;9.154;2023-05-19T12:33:05;15.60;99.90
10848;DHT22;5477;48.806;9.154;2023-05-19T12:35:36;15.70;99.90
10848;DHT22;5477;48.806;9.154;2023-05-19T12:38:05;15.90;99.90
10848;DHT22;5477;48.806;9.154;2023-05-19T12:40:33;15.90;99.90
10848;DHT22;5477;48.806;9.154;2023-05-19T12:43:02;16.00;99.90
10848;DHT22;5477;48.806;9.154;2023-05-19T12:45:34;16.10;99.90
10848;DHT22;5477;48.806;9.154;2023-05-19T12:48:03;16.10;99.90
10848;DHT22;5477;48.806;9.154;2023-05-19T12:50:32;16.00;99.90
10848;DHT22;5477;48.806;9.154;2023-05-19T12:53:01;15.90;99.90
10848;DHT22;5477;48.806;9.154;2023-05-19T12:55:29;15.90;99.90
10848;DHT22;5477;48.806;9.154;2023-05-19T12:57:57;15.80;99.90
10848;DHT22;5477;48.806;9.154;2023-05-19T13:00:25;15.70;99.90
10848;DHT22;5477;48.806;9.154;2023-05-19T13:02:59;15.60;99.90
10848;DHT22;5477;48.806;9.154;2023-05-19T13:05:29;15.50;99.90
10848;DHT22;5477;48.806;9.154;2023-05-19T13:08:00;15.50;99.90
10848;DHT22;5477;48.806;9.154;2023-05-19T13:10:29;15.50;99.90
10848;DHT22;5477;48.806;9.154;2023-05-19T13:12:59;15.50;99.90
10848;DHT22;5477;48.806;9.154;2023-05-19T13:15:28;15.40;99.90
10848;DHT22;5477;48.806;9.154;2023-05-19T13:18:03;15.40;99.90
10848;DHT22;5477;48.806;9.154;2023-05-19T13:20:32;15.30;99.90
10848;DHT22;5477;48.806;9.154;2023-05-19T13:23:00;15.30;99.90
10848;DHT22;5477;48.806;9.154;2023-05-19T13:25:29;15.40;99.90
10848;DHT22;5477;48.806;9.154;2023-05-19T13:27:57;15.40;99.90
10848;DHT22;5477;48.806;9.154;2023-05-19T13:30:27;15.50;99.90
10848;DHT22;5477;48.806;9.154;2023-05-19T13:32:55;15.60;99.90
10848;DHT22;5477;48.806;9.154;2023-05-19T13:35:24;15.80;99.90
10848;DHT22;5477;48.806;9.154;2023-05-19T13:37:52;15.80;99.90
10848;DHT22;5477;48.806;9.154;2023-05-19T13:40:21;15.90;99.90
10848;DHT22;5477;48.806;9.154;2023-05-19T13:42:49;15.90;99.90
10848;DHT22;5477;48.806;9.154;2023-05-19T13:45:17;15.90;99.90
10848;DHT22;5477;48.806;9.154;2023-05-19T13:47:45;15.90;99.90
10848;DHT22;5477;48.806;9.154;2023-05-19T13:50:13;15.90;99.90
10848;DHT22;5477;48.806;9.154;2023-05-19T13:52:43;15.80;99.90
10848;DHT22;5477;48.806;9.154;2023-05-19T13:55:11;15.70;99.90
10848;DHT22;5477;48.806;9.154;2023-05-19T13:57:39;15.70;99.90
10848;DHT22;5477;48.806;9.154;2023-05-19T14:00:10;15.70;99.90
10848;DHT22;5477;48.806;9.154;2023-05-19T14:02:38;15.70;99.90
10848;DHT22;5477;48.806;9.154;2023-05-19T14:05:07;15.60;99.90
10848;DHT22;5477;48.806;9.154;2023-05-19T14:07:35;15.60;99.90
10848;DHT22;5477;48.806;9.154;2023-05-19T14:10:06;15.70;99.90
10848;DHT22;5477;48.806;9.154;2023-05-19T14:12:34;15.60;99.90
10848;DHT22;5477;48.806;9.154;2023-05-19T14:15:22;15.60;99.90
10848;DHT22;5477;48.806;9.154;2023-05-19T14:17:50;15.60;99.90
10848;DHT22;5477;48.806;9.154;2023-05-19T14:20:19;15.60;99.90
10848;DHT22;5477;48.806;9.154;2023-05-19T14:22:47;15.60;99.90
10848;DHT22;5477;48.806;9.154;2023-05-19T14:25:17;15.70;99.90
10848;DHT22;5477;48.806;9.154;2023-05-19T14:27:45;15.80;99.90
10848;DHT22;5477;48.806;9.154;2023-05-19T14:30:13;15.90;99.90
10848;DHT22;5477;48.806;9.154;2023-05-19T14:32:41;16.10;99.90
10848;DHT22;5477;48.806;9.154;2023-05-19T14:35:09;16.10;99.90
10848;DHT22;5477;48.806;9.154;2023-05-19T14:37:37;16.10;99.90
10848;DHT22;5477;48.806;9.154;2023-05-19T14:40:06;16.10;99.90
10848;DHT22;5477;48.806;9.154;2023-05-19T14:42:35;16.20;99.90
10848;DHT22;5477;48.806;9.154;2023-05-19T14:45:04;16.20;99.90
10848;DHT22;5477;48.806;9.154;2023-05-19T14:47:32;16.20;99.90
10848;DHT22;5477;48.806;9.154;2023-05-19T14:50:00;16.20;99.90
10848;DHT22;5477;48.806;9.154;2023-05-19T14:52:28;16.20;99.90
10848;DHT22;5477;48.806;9.154;2023-05-19T14:54:56;16.20;99.90
10848;DHT22;5477;48.806;9.154;2023-05-19T14:57:24;16.20;99.90
10848;DHT22;5477;48.806;9.154;2023-05-19T14:59:53;16.10;99.90
10848;DHT22;5477;48.806;9.154;2023-05-19T15:02:22;16.10;99.90
10848;DHT22;5477;48.806;9.154;2023-05-19T15:04:50;16.10;99.90
10848;DHT22;5477;48.806;9.154;2023-05-19T15:07:18;16.10;99.90
10848;DHT22;5477;48.806;9.154;2023-05-19T15:09:46;16.10;99.90
10848;DHT22;5477;48.806;9.154;2023-05-19T15:12:14;16.00;99.90
10848;DHT22;5477;48.806;9.154;2023-05-19T15:14:41;16.00;99.90
10848;DHT22;5477;48.806;9.154;2023-05-19T15:17:11;15.90;99.90
10848;DHT22;5477;48.806;9.154;2023-05-19T15:19:39;15.90;99.90
10848;DHT22;5477;48.806;9.154;2023-05-19T15:22:08;15.90;99.90
10848;DHT22;5477;48.806;9.154;2023-05-19T15:24:36;16.00;99.90
10848;DHT22;5477;48.806;9.154;2023-05-19T15:27:04;16.00;99.90
10848;DHT22;5477;48.806;9.154;2023-05-19T15:29:32;16.00;99.90
10848;DHT22;5477;48.806;9.154;2023-05-19T15:32:00;16.10;99.90
10848;DHT22;5477;48.806;9.154;2023-05-19T15:34:30;16.10;99.90
10848;DHT22;5477;48.806;9.154;2023-05-19T15:36:58;16.10;99.90
10848;DHT22;5477;48.806;9.154;2023-05-19T15:39:26;16.20;99.90
10848;DHT22;5477;48.806;9.154;2023-05-19T15:41:54;16.20;99.90
10848;DHT22;5477;48.806;9.154;2023-05-19T15:44:21;16.20;99.90
10848;DHT22;5477;48.806;9.154;2023-05-19T15:46:49;16.20;99.90
10848;DHT22;5477;48.806;9.154;2023-05-19T15:49:18;16.20;99.90
10848;DHT22;5477;48.806;9.154;2023-05-19T15:51:47;16.10;99.90
10848;DHT22;5477;48.806;9.154;2023-05-19T15:54:15;16.10;99.90
10848;DHT22;5477;48.806;9.154;2023-05-19T15:56:43;16.10;99.90
10848;DHT22;5477;48.806;9.154;2023-05-19T15:59:11;16.10;99.90
10848;DHT22;5477;48.806;9.154;2023-05-19T16:01:39;16.10;99.90